Latest Weather Observations for Lake Macquarie - Cooranbong

IDN60901

Issued at 11:55 am EDT Thursday 23 October 2014 (issued every 10 minutes, with the page automatically refreshed every 10 minutes)

About weather observations | Map of Sydney area stations | Latest observations for Sydney area | Other Formats
Station Details ID: 061412 Name: LAKE MACQUARIE AWS Lat: -33.09 Lon: 151.46 Height: 6.0 m
Data from the previous 72 hours. | See also: Recent months at Lake Macquarie - Cooranbong
Date/Time
EDT
Tmp

°C
App
Tmp
°C
Dew
Point
°C
Rel
Hum
%
Delta-T

°C
Wind Press
QNH
hPa
Press
MSL
hPa
Rain
since
9 am
mm
Dir
 
Spd
km/h
Gust
km/h
Spd
kts
Gust
kts
23/11:30am 26.7 28.7 16.0 52 6.6 CALM 0 0 0 0 1017.5 1017.5 0.0
23/11:00am 25.6 27.1 14.7 51 6.5 CALM 0 0 0 0 1017.8 1017.8 0.0
23/10:30am 24.4 25.0 14.2 53 6.0 NNE 4 7 2 4 1018.0 1018.0 0.0
23/10:00am 22.6 24.4 15.4 64 4.3 CALM 0 0 0 0 1018.2 1018.2 0.0
23/09:30am 20.6 21.2 14.3 67 3.7 N 4 6 2 3 1018.5 1018.5 0.0
23/09:00am 18.8 19.4 14.3 75 2.6 E 4 7 2 4 1018.6 1018.6 0.0
23/08:30am 16.5 17.7 13.8 84 1.5 CALM 0 0 0 0 1018.7 1018.7 0.0
23/08:00am 13.7 14.8 13.4 98 0.2 NNE 0 0 0 0 1018.7 1018.7 0.0
23/07:30am 11.4 11.8 11.1 98 0.2 CALM 0 0 0 0 1018.5 1018.5 0.0
23/07:00am 10.0 9.5 9.5 97 0.2 N 2 4 1 2 1018.3 1018.3 0.0
23/06:30am 9.4 9.2 8.9 97 0.2 CALM 0 0 0 0 1018.5 1018.5 0.0
23/06:00am 9.5 9.3 9.0 97 0.2 NNE 0 4 0 2 1018.4 1018.4 0.0
23/05:30am 9.5 9.3 8.9 96 0.3 CALM 0 0 0 0 1018.3 1018.3 0.0
23/05:00am 9.8 9.6 9.2 96 0.3 CALM 0 0 0 0 1018.1 1018.1 0.0
23/04:30am 10.1 10.0 9.5 96 0.3 CALM 0 0 0 0 1018.1 1018.1 0.0
23/04:00am 10.2 10.1 9.6 96 0.3 CALM 0 0 0 0 1018.0 1018.0 0.0
23/03:30am 10.5 10.5 9.9 96 0.3 CALM 0 0 0 0 1018.3 1018.3 0.0
23/03:00am 10.5 10.5 9.9 96 0.3 CALM 0 0 0 0 1018.6 1018.6 0.0
23/02:30am 11.0 11.2 10.4 96 0.3 CALM 0 0 0 0 1018.8 1018.8 0.0
23/02:00am 11.3 11.5 10.5 95 0.4 CALM 0 0 0 0 1019.2 1019.2 0.0
23/01:30am 11.4 11.6 10.6 95 0.4 CALM 0 0 0 0 1019.4 1019.4 0.0
23/01:00am 11.6 11.9 10.8 95 0.4 CALM 0 0 0 0 1019.7 1019.7 0.0
23/12:30am 12.1 12.5 11.2 94 0.5 CALM 0 0 0 0 1020.0 1020.0 0.0
23/12:00am 12.1 12.4 11.0 93 0.6 E 0 0 0 0 1020.3 1020.3 0.0
 
Date/Time
EDT
Tmp

°C
App
Tmp
°C
Dew
Point
°C
Rel
Hum
%
Delta-T

°C
Wind Press
QNH
hPa
Press
MSL
hPa
Rain
since
9 am
mm
Dir
 
Spd
km/h
Gust
km/h
Spd
kts
Gust
kts
22/11:30pm 12.4 12.9 11.5 94 0.5 CALM 0 0 0 0 1020.4 1020.4 0.0
22/11:00pm 12.9 13.5 11.8 93 0.6 CALM 0 0 0 0 1020.6 1020.6 0.0
22/10:30pm 13.1 13.7 11.8 92 0.7 CALM 0 0 0 0 1020.8 1020.8 0.0
22/10:00pm 13.7 14.5 12.4 92 0.7 CALM 0 0 0 0 1020.9 1020.9 0.0
22/09:30pm 14.0 14.7 12.2 89 1.0 E 0 0 0 0 1020.9 1020.9 0.0
22/09:00pm 14.7 15.5 12.4 86 1.2 CALM 0 0 0 0 1020.9 1020.9 0.0
22/08:30pm 15.1 15.7 11.9 81 1.7 CALM 0 0 0 0 1020.6 1020.6 0.0
22/08:00pm 16.8 17.4 11.9 73 2.7 CALM 0 2 0 1 1020.5 1020.5 0.0
22/07:30pm 18.0 18.1 11.6 66 3.5 E 2 4 1 2 1020.4 1020.4 0.0
22/07:00pm 19.1 18.8 11.4 61 4.2 E 4 7 2 4 1020.4 1020.4 0.0
22/06:30pm 20.1 19.5 11.8 59 4.6 E 6 11 3 6 1020.4 1020.4 0.0
22/06:00pm 20.7 19.7 11.1 54 5.3 E 7 15 4 8 1020.6 1020.6 0.0
22/05:30pm 20.9 19.7 11.5 55 5.2 E 9 15 5 8 1020.8 1020.8 0.0
22/05:00pm 20.7 18.7 11.6 56 5.0 E 13 22 7 12 1021.0 1021.0 0.0
22/04:30pm 20.9 18.4 12.3 58 4.8 ESE 17 28 9 15 1021.2 1021.2 0.0
22/04:00pm 20.9 18.7 12.1 57 4.9 E 15 24 8 13 1021.8 1021.8 0.0
22/03:30pm 21.4 19.5 13.1 59 4.7 ESE 15 24 8 13 1022.2 1022.2 0.0
22/03:00pm 21.1 19.4 12.5 58 4.8 E 13 22 7 12 1022.6 1022.6 0.0
22/02:30pm 21.3 19.9 13.5 61 4.5 E 13 22 7 12 1023.0 1023.0 0.0
22/02:00pm 20.9 19.2 12.3 58 4.8 ESE 13 24 7 13 1023.6 1023.6 0.0
22/01:30pm 21.0 19.0 12.7 59 4.7 ESE 15 20 8 11 1024.0 1024.0 0.0
22/01:00pm 20.4 18.9 11.9 58 4.7 E 11 20 6 11 1024.6 1024.6 0.0
22/12:30pm 20.2 18.4 12.2 60 4.5 ESE 13 19 7 10 1025.1 1025.1 0.0
22/12:00pm 20.1 18.4 11.3 57 4.8 E 11 19 6 10 1025.5 1025.5 0.0
22/11:30am 20.5 18.6 10.6 53 5.4 NNE 11 17 6 9 1026.1 1026.1 0.0
22/11:00am 19.3 17.6 9.8 54 5.0 N 9 19 5 10 1026.5 1026.5 0.0
22/10:30am 20.4 19.7 12.1 59 4.6 NE 7 15 4 8 1026.9 1026.9 0.0
22/10:00am 19.3 18.8 12.6 65 3.7 NE 7 11 4 6 1027.1 1027.1 0.0
22/09:30am 17.4 17.5 12.7 74 2.6 NNW 4 7 2 4 1027.6 1027.6 0.0
22/09:00am 16.8 17.6 12.5 76 2.4 CALM 0 2 0 1 1027.6 1027.6 0.6
22/08:30am 15.5 16.3 12.6 83 1.6 CALM 0 2 0 1 1027.7 1027.7 0.6
22/08:00am 13.6 14.3 12.2 91 0.8 CALM 0 0 0 0 1027.6 1027.6 0.6
22/07:30am 12.7 13.3 11.9 95 0.4 CALM 0 0 0 0 1027.7 1027.7 0.6
22/07:00am 12.2 12.6 11.4 95 0.4 CALM 0 0 0 0 1027.6 1027.6 0.6
22/06:30am 11.6 11.8 10.7 94 0.5 CALM 0 0 0 0 1027.4 1027.4 0.6
22/06:00am 11.6 11.8 10.5 93 0.6 CALM 0 0 0 0 1027.4 1027.4 0.6
22/05:30am 12.0 11.9 10.9 93 0.6 SW 2 6 1 3 1027.4 1027.4 0.6
22/05:00am 12.2 12.3 11.4 95 0.4 SW 2 4 1 2 1027.5 1027.5 0.6
22/04:30am 12.2 12.6 11.3 94 0.5 CALM 0 0 0 0 1027.6 1027.6 0.6
22/04:00am 12.4 12.9 11.5 94 0.5 CALM 0 4 0 2 1027.8 1027.8 0.6
22/03:30am 12.5 13.0 11.6 94 0.5 CALM 0 4 0 2 1028.2 1028.2 0.6
22/03:00am 12.8 13.4 11.9 94 0.5 CALM 0 4 0 2 1028.5 1028.5 0.6
22/02:30am 13.0 13.6 11.9 93 0.6 CALM 0 0 0 0 1028.7 1028.7 0.6
22/02:00am 13.2 13.9 12.1 93 0.6 CALM 0 2 0 1 1029.2 1029.2 0.6
22/01:30am 13.3 13.7 12.4 94 0.5 SW 2 4 1 2 1029.8 1029.8 0.6
22/01:00am 13.4 13.4 12.3 93 0.6 SW 4 6 2 3 1030.1 1030.1 0.4
22/12:30am 13.4 13.4 12.3 93 0.6 NW 4 6 2 3 1030.7 1030.7 0.4
22/12:00am 13.6 14.4 12.5 93 0.6 CALM 0 0 0 0 1030.8 1030.8 0.4
 
Date/Time
EDT
Tmp

°C
App
Tmp
°C
Dew
Point
°C
Rel
Hum
%
Delta-T

°C
Wind Press
QNH
hPa
Press
MSL
hPa
Rain
since
9 am
mm
Dir
 
Spd
km/h
Gust
km/h
Spd
kts
Gust
kts
21/11:30pm 13.7 14.5 12.4 92 0.7 CALM 0 4 0 2 1031.0 1031.0 0.4
21/11:00pm 13.9 14.3 12.5 91 0.8 W 2 4 1 2 1031.2 1031.2 0.4
21/10:30pm 14.3 15.0 12.3 88 1.1 CALM 0 0 0 0 1031.4 1031.4 0.4
21/10:00pm 14.5 15.0 11.7 83 1.5 CALM 0 2 0 1 1031.4 1031.4 0.2
21/09:30pm 15.6 14.7 10.8 73 2.5 E 6 9 3 5 1031.4 1031.4 0.0
21/09:00pm 15.4 14.3 10.8 74 2.4 SE 7 17 4 9 1031.4 1031.4 0.0
21/08:30pm 15.6 15.1 10.6 72 2.6 E 4 7 2 4 1031.0 1031.0 0.0
21/08:00pm 15.4 15.2 10.4 72 2.6 E 2 6 1 3 1030.8 1030.8 0.0
21/07:30pm 15.7 15.3 9.8 68 3.1 E 2 7 1 4 1030.6 1030.6 0.0
21/07:00pm 15.9 16.0 10.2 69 3.0 CALM 0 0 0 0 1030.4 1030.4 0.0
21/06:30pm 16.2 15.8 9.8 66 3.3 E 2 4 1 2 1030.5 1030.5 0.0
21/06:00pm 16.4 15.1 9.1 62 3.7 E 6 7 3 4 1030.3 1030.3 0.0
21/05:30pm 16.6 15.3 9.3 62 3.8 ESE 6 15 3 8 1030.2 1030.2 0.0
21/05:00pm 16.8 15.4 9.7 63 3.7 E 7 17 4 9 1030.1 1030.1 0.0
21/04:30pm 16.8 15.3 9.2 61 3.9 E 7 11 4 6 1030.2 1030.2 0.0
21/04:00pm 16.8 15.0 9.5 62 3.8 ESE 9 17 5 9 1030.2 1030.2 0.0
21/03:30pm 17.1 15.2 9.0 59 4.2 E 9 13 5 7 1030.4 1030.4 0.0
21/03:00pm 17.3 15.6 8.2 55 4.6 E 7 13 4 7 1030.8 1030.8 0.0
21/02:30pm 17.1 15.6 8.3 56 4.5 E 6 11 3 6 1031.1 1031.1 0.0
21/02:00pm 17.0 15.6 9.7 62 3.8 ESE 7 15 4 8 1031.6 1031.6 0.0
21/01:30pm 17.6 16.8 9.5 59 4.2 ENE 4 9 2 5 1031.8 1031.8 0.0
21/01:00pm 17.4 15.8 8.8 57 4.4 E 7 13 4 7 1032.2 1032.2 0.0
21/12:30pm 17.2 15.3 9.1 59 4.2 E 9 20 5 11 1032.5 1032.5 0.0
21/12:00pm 17.8 17.0 9.7 59 4.2 ESE 4 7 2 4 1032.6 1032.6 0.0
21/11:30am 17.1 15.6 9.0 59 4.2 ESE 7 11 4 6 1032.8 1032.8 0.0
21/11:00am 17.1 16.1 8.8 58 4.2 E 4 9 2 5 1032.9 1032.9 0.0
21/10:30am 16.4 16.0 9.8 65 3.5 ENE 2 6 1 3 1033.0 1033.0 0.0
21/10:00am 16.0 17.0 13.1 83 1.6 CALM 0 0 0 0 1033.0 1033.0 0.0
21/09:30am 15.5 15.9 12.6 83 1.6 NW 2 4 1 2 1032.9 1032.9 0.0
21/09:00am 15.2 16.0 12.7 85 1.4 CALM 0 4 0 2 1032.6 1032.6 1.8
21/08:30am 14.7 15.6 12.9 89 1.0 CALM 0 2 0 1 1032.3 1032.3 1.8
21/08:00am 14.1 14.9 12.7 91 0.8 CALM 0 0 0 0 1032.0 1032.0 1.8
21/07:30am 13.8 14.7 12.9 94 0.5 CALM 0 2 0 1 1031.8 1031.8 1.8
21/07:00am 13.6 13.7 12.8 95 0.4 WNW 4 7 2 4 1031.5 1031.5 1.8
21/06:30am 13.7 14.2 12.9 95 0.4 NW 2 7 1 4 1031.3 1031.3 1.8
21/06:00am 13.7 13.9 12.9 95 0.4 W 4 6 2 3 1031.0 1031.0 1.8
21/05:30am 13.6 14.1 12.7 94 0.5 WNW 2 4 1 2 1030.8 1030.8 1.8
21/05:00am 13.6 14.1 12.7 94 0.5 SW 2 4 1 2 1030.7 1030.7 1.8
21/04:30am 13.7 14.2 12.9 95 0.4 S 2 6 1 3 1030.9 1030.9 1.8
21/04:00am 13.8 14.3 12.9 94 0.5 S 2 6 1 3 1030.8 1030.8 1.8
21/03:30am 13.9 14.5 13.0 94 0.5 SW 2 6 1 3 1030.9 1030.9 1.6
21/03:00am 13.9 14.8 13.0 94 0.5 CALM 0 6 0 3 1030.8 1030.8 1.4
21/02:30am 13.9 14.5 13.0 94 0.5 SW 2 4 1 2 1031.0 1031.0 1.2
21/02:00am 14.1 14.7 13.1 94 0.5 W 2 6 1 3 1031.2 1031.2 1.2
21/01:30am 14.1 14.7 13.0 93 0.6 NNW 2 7 1 4 1031.3 1031.3 1.0
21/01:00am 14.2 14.7 12.9 92 0.7 NW 2 4 1 2 1031.5 1031.5 1.0
21/12:30am 14.3 14.5 12.9 91 0.8 WSW 4 6 2 3 1031.7 1031.7 1.0
21/12:00am 14.4 14.5 12.8 90 0.9 SW 4 7 2 4 1031.9 1031.9 0.8
 
Date/Time
EDT
Tmp

°C
App
Tmp
°C
Dew
Point
°C
Rel
Hum
%
Delta-T

°C
Wind Press
QNH
hPa
Press
MSL
hPa
Rain
since
9 am
mm
Dir
 
Spd
km/h
Gust
km/h
Spd
kts
Gust
kts
20/11:30pm 14.6 15.5 13.0 90 0.9 CALM 0 0 0 0 1031.9 1031.9 0.8
20/11:00pm 14.6 15.2 13.1 91 0.8 W 2 4 1 2 1032.0 1032.0 0.8
20/10:30pm 14.7 15.3 13.2 91 0.8 SSW 2 7 1 4 1032.1 1032.1 0.8
20/10:00pm 14.8 15.8 13.3 91 0.8 CALM 0 0 0 0 1032.0 1032.0 0.8
20/09:30pm 14.8 15.8 13.3 91 0.8 CALM 0 0 0 0 1031.9 1031.9 0.8
20/09:00pm 14.8 15.9 13.5 92 0.7 CALM 0 0 0 0 1031.8 1031.8 0.8
20/08:30pm 14.8 14.7 13.3 91 0.8 WSW 6 9 3 5 1031.3 1031.3 0.6
20/08:00pm 14.8 15.4 13.2 90 0.9 WSW 2 4 1 2 1031.0 1031.0 0.6
20/07:30pm 14.8 15.1 13.3 91 0.8 SW 4 7 2 4 1030.6 1030.6 0.6
20/07:00pm 15.0 14.7 13.4 90 0.9 S 7 19 4 10 1030.5 1030.5 0.6
20/06:30pm 15.6 15.7 13.8 89 1.0 S 6 11 3 6 1030.0 1030.0 0.6
20/06:00pm 15.8 16.0 14.2 90 0.9 S 6 11 3 6 1029.9 1029.9 0.4
20/05:30pm 15.8 15.8 14.3 91 0.9 S 7 19 4 10 1029.8 1029.8 0.4
20/05:00pm 16.4 16.6 14.6 89 1.0 SE 7 13 4 7 1029.6 1029.6 0.2
20/04:30pm 16.6 16.4 14.8 89 1.0 SSE 9 19 5 10 1029.4 1029.4 0.2
20/04:00pm 17.2 16.6 14.5 84 1.5 S 11 20 6 11 1029.2 1029.2 0.2
20/03:30pm 17.9 17.4 13.8 77 2.3 SSE 9 17 5 9 1029.2 1029.2 0.0
20/03:00pm 17.6 16.3 13.7 78 2.2 S 13 22 7 12 1029.4 1029.4 0.0
20/02:30pm 19.2 17.1 12.5 65 3.7 S 15 28 8 15 1029.3 1029.3 0.0
20/02:00pm 20.3 19.5 12.8 62 4.2 S 9 19 5 10 1029.7 1029.7 0.0
20/01:30pm 19.9 18.6 11.4 58 4.7 SSW 9 17 5 9 1029.9 1029.9 0.0
20/01:00pm 20.1 17.8 11.6 58 4.7 SSE 15 26 8 14 1030.0 1030.0 0.0
20/12:30pm 19.4 16.9 10.9 58 4.6 S 15 33 8 18 1030.2 1030.2 0.0
20/12:00pm 20.0 18.5 11.8 59 4.5 SSE 11 28 6 15 1030.2 1030.2 0.0

Latest Capital City Observations: Canberra | Sydney | Melbourne | Brisbane | Adelaide | Perth | Hobart | Darwin

Other Formats:

Comma delimited format used in spreadsheet applications
http://www.bom.gov.au/fwo/IDN60901/IDN60901.95767.axf

JavaScript Object Notation format (JSON) in row-major order
http://www.bom.gov.au/fwo/IDN60901/IDN60901.95767.json